Time;durP1;ratioP1;P1;durP2;ratioP2;P2;SDS_P1;SDS_P2;PMS_P1;PMS_P2;Temp;Humidity;BMP_temperature;BMP_pressure;BME280_temperature;BME280_humidity;BME280_pressure;Samples;Min_cycle;Max_cycle;Signal;HPM_P1;HPM_P2
2022/03/16 00:01:42;;;;;;;12.40;7.70;;;9.70;75.70;;;;;;4938832;28;20407;-66
2022/03/16 00:04:08;;;;;;;13.98;7.60;;;9.60;75.70;;;;;;4941085;28;20043;-63
2022/03/16 00:06:34;;;;;;;9.48;6.93;;;9.60;75.80;;;;;;4941303;28;20196;-65
2022/03/16 00:08:59;;;;;;;9.88;7.15;;;9.50;75.60;;;;;;4939570;28;20036;-65
2022/03/16 00:11:25;;;;;;;10.15;6.93;;;9.50;75.50;;;;;;4938910;28;20522;-65
2022/03/16 00:13:50;;;;;;;12.35;7.25;;;9.50;75.30;;;;;;4940159;28;20035;-65
2022/03/16 00:16:16;;;;;;;8.98;7.03;;;9.50;75.30;;;;;;4942277;28;20119;-65
2022/03/16 00:18:42;;;;;;;9.88;6.78;;;9.50;75.20;;;;;;4941407;28;20422;-64
2022/03/16 00:21:08;;;;;;;9.73;7.18;;;9.50;75.00;;;;;;4937070;28;20499;-66
2022/03/16 00:23:34;;;;;;;9.82;7.25;;;9.50;74.90;;;;;;4936492;28;20064;-65
2022/03/16 00:25:59;;;;;;;12.90;8.48;;;9.50;74.90;;;;;;4935350;28;20118;-65
2022/03/16 00:28:25;;;;;;;14.55;10.70;;;9.40;74.90;;;;;;4932727;28;20031;-64
2022/03/16 00:30:50;;;;;;;14.95;11.30;;;9.40;75.60;;;;;;4937044;28;20579;-65
2022/03/16 00:33:16;;;;;;;14.18;11.23;;;9.40;76.10;;;;;;4936644;28;20042;-65
2022/03/16 00:35:42;;;;;;;14.07;10.55;;;9.30;76.30;;;;;;4939563;28;20034;-65
2022/03/16 00:38:09;;;;;;;13.95;9.48;;;9.20;76.40;;;;;;4935137;28;20040;-65
2022/03/16 00:40:36;;;;;;;12.10;9.55;;;9.20;76.10;;;;;;4933393;28;20024;-66
2022/03/16 00:43:02;;;;;;;12.80;9.85;;;9.20;76.00;;;;;;4934551;28;20036;-65
2022/03/16 00:45:27;;;;;;;13.32;9.68;;;9.20;75.80;;;;;;4941014;28;20030;-65
2022/03/16 00:47:53;;;;;;;13.73;10.73;;;9.20;75.60;;;;;;4936929;28;20028;-66
2022/03/16 00:50:19;;;;;;;12.18;9.98;;;9.20;75.60;;;;;;4932965;28;20068;-64
2022/03/16 00:52:44;;;;;;;14.90;10.38;;;9.20;75.40;;;;;;4934003;28;20119;-64
2022/03/16 00:55:10;;;;;;;17.10;10.40;;;9.20;75.20;;;;;;4935798;28;20125;-64
2022/03/16 00:57:36;;;;;;;13.20;10.43;;;9.20;75.10;;;;;;4935896;28;20412;-66
2022/03/16 01:00:04;;;;;;;16.85;10.75;;;9.10;75.10;;;;;;4936189;28;20043;-66
2022/03/16 01:02:30;;;;;;;15.73;10.35;;;9.10;75.30;;;;;;4938423;28;20132;-65
2022/03/16 01:04:56;;;;;;;12.05;10.18;;;9.10;75.20;;;;;;4934548;28;20116;-64
2022/03/16 01:07:21;;;;;;;14.75;11.18;;;9.00;75.20;;;;;;4935791;28;20044;-66
2022/03/16 01:09:47;;;;;;;18.95;11.15;;;9.00;75.30;;;;;;4936129;28;20134;-65
2022/03/16 01:12:12;;;;;;;17.42;11.15;;;8.90;75.70;;;;;;4935790;28;20496;-66
2022/03/16 01:14:38;;;;;;;13.05;10.15;;;8.90;75.30;;;;;;4929767;28;20067;-65
2022/03/16 01:17:04;;;;;;;13.90;10.38;;;8.90;75.30;;;;;;4936467;28;20040;-66
2022/03/16 01:19:29;;;;;;;12.05;9.82;;;8.90;75.20;;;;;;4934724;28;20090;-65
2022/03/16 01:21:55;;;;;;;15.25;10.35;;;8.80;75.10;;;;;;4933213;28;20499;-66
2022/03/16 01:24:21;;;;;;;14.00;10.07;;;8.80;75.10;;;;;;4935902;28;20102;-65
2022/03/16 01:26:47;;;;;;;13.55;10.10;;;8.80;75.10;;;;;;4932785;28;20056;-66
2022/03/16 01:29:12;;;;;;;11.57;9.38;;;8.80;74.90;;;;;;4935730;28;20043;-65
2022/03/16 01:31:38;;;;;;;18.60;10.75;;;8.80;74.70;;;;;;4934489;28;20094;-65
2022/03/16 01:34:04;;;;;;;14.43;10.32;;;8.80;74.70;;;;;;4933648;28;20039;-66
2022/03/16 01:36:30;;;;;;;13.02;10.23;;;8.70;74.80;;;;;;4934107;28;20036;-65
2022/03/16 01:38:56;;;;;;;13.70;9.98;;;8.70;74.90;;;;;;4931808;28;20140;-66
2022/03/16 01:41:22;;;;;;;15.98;10.40;;;8.60;74.90;;;;;;4936318;28;20036;-65
2022/03/16 01:43:53;;;;;;;14.73;9.65;;;8.60;75.00;;;;;;4934648;28;20066;-65
2022/03/16 01:46:20;;;;;;;14.82;10.18;;;8.60;74.90;;;;;;4937236;28;20135;-66
2022/03/16 01:48:46;;;;;;;14.45;10.20;;;8.60;74.80;;;;;;4937352;28;20447;-65
2022/03/16 01:51:12;;;;;;;13.20;9.82;;;8.50;74.70;;;;;;4937632;28;20051;-66
2022/03/16 01:53:40;;;;;;;16.85;10.77;;;8.50;74.60;;;;;;4935443;28;20119;-66
2022/03/16 01:56:07;;;;;;;19.65;11.05;;;8.50;74.70;;;;;;4934334;28;20183;-66
2022/03/16 01:58:33;;;;;;;15.23;10.55;;;8.50;74.70;;;;;;4930730;28;20039;-66
2022/03/16 02:00:58;;;;;;;15.05;10.73;;;8.50;74.90;;;;;;4938337;28;20018;-66
2022/03/16 02:03:24;;;;;;;16.55;12.15;;;8.40;74.90;;;;;;4934781;28;20031;-65
2022/03/16 02:05:50;;;;;;;19.90;11.75;;;8.40;75.10;;;;;;4934354;28;20343;-65
2022/03/16 02:08:17;;;;;;;16.67;11.77;;;8.40;75.40;;;;;;4932374;28;20023;-65
2022/03/16 02:10:42;;;;;;;17.08;11.48;;;8.30;75.90;;;;;;4931234;28;20046;-65
2022/03/16 02:13:12;;;;;;;13.32;10.18;;;8.20;76.10;;;;;;4934694;28;20028;-66
2022/03/16 02:15:39;;;;;;;13.25;10.30;;;8.30;76.00;;;;;;4933463;28;20102;-65
2022/03/16 02:18:05;;;;;;;12.27;9.75;;;8.20;75.80;;;;;;4931775;28;20078;-65
2022/03/16 02:20:31;;;;;;;13.32;10.10;;;8.20;75.80;;;;;;4931563;28;20070;-65
2022/03/16 02:22:56;;;;;;;16.23;9.98;;;8.20;75.80;;;;;;4934852;28;20495;-64
2022/03/16 02:25:23;;;;;;;16.88;10.30;;;8.10;75.80;;;;;;4934865;28;20027;-65
2022/03/16 02:27:49;;;;;;;20.80;9.98;;;8.10;75.90;;;;;;4935251;28;20558;-65
2022/03/16 02:30:16;;;;;;;16.17;9.13;;;8.10;76.10;;;;;;4938699;28;20506;-65
2022/03/16 02:32:41;;;;;;;12.65;9.23;;;8.10;76.00;;;;;;4938648;28;20051;-66
2022/03/16 02:35:07;;;;;;;12.77;9.50;;;8.00;75.90;;;;;;4938252;28;20035;-65
2022/03/16 02:37:37;;;;;;;12.75;9.43;;;8.00;75.80;;;;;;4937080;28;20574;-65
2022/03/16 02:40:03;;;;;;;12.73;9.70;;;8.00;75.80;;;;;;4937976;28;20044;-65
2022/03/16 02:42:29;;;;;;;16.00;10.95;;;8.00;75.80;;;;;;4952562;28;20051;-66
2022/03/16 02:44:55;;;;;;;11.65;9.10;;;7.90;76.00;;;;;;4938416;28;20455;-65
2022/03/16 02:47:20;;;;;;;14.32;9.82;;;7.90;76.20;;;;;;4937014;28;20043;-65
2022/03/16 02:49:46;;;;;;;13.90;9.48;;;7.90;76.10;;;;;;4937651;28;20035;-65
2022/03/16 02:52:12;;;;;;;11.77;9.23;;;7.80;76.10;;;;;;4936074;28;20051;-65
2022/03/16 02:54:38;;;;;;;14.10;9.95;;;7.80;76.10;;;;;;4937957;28;20040;-65
2022/03/16 02:57:04;;;;;;;12.02;8.80;;;7.80;76.00;;;;;;4937086;28;20039;-65
2022/03/16 02:59:30;;;;;;;12.77;9.07;;;7.80;75.80;;;;;;4932071;28;20491;-65
2022/03/16 03:01:55;;;;;;;15.30;10.05;;;7.80;76.00;;;;;;4932253;28;20381;-65
2022/03/16 03:04:21;;;;;;;12.85;10.45;;;7.80;76.60;;;;;;4935129;28;20526;-65
2022/03/16 03:06:47;;;;;;;15.07;11.00;;;7.80;75.80;;;;;;4933075;28;20039;-65
2022/03/16 03:09:12;;;;;;;13.32;10.48;;;7.80;75.80;;;;;;4930650;28;20046;-64
2022/03/16 03:11:38;;;;;;;15.80;10.60;;;7.70;75.80;;;;;;4933939;28;20043;-65
2022/03/16 03:14:04;;;;;;;15.73;10.98;;;7.70;75.80;;;;;;4934363;28;20402;-65
2022/03/16 03:16:29;;;;;;;14.95;10.40;;;7.70;75.70;;;;;;4933184;28;20035;-65
2022/03/16 03:18:55;;;;;;;11.57;9.38;;;7.70;75.70;;;;;;4931714;28;20098;-66
2022/03/16 03:21:20;;;;;;;13.05;9.20;;;7.70;75.70;;;;;;4935222;28;20071;-65
2022/03/16 03:23:46;;;;;;;14.48;9.73;;;7.60;75.70;;;;;;4935614;28;20066;-65
2022/03/16 03:26:11;;;;;;;16.33;9.32;;;7.60;75.80;;;;;;4930996;28;20385;-65
2022/03/16 03:28:37;;;;;;;12.10;9.93;;;7.60;75.80;;;;;;4933159;28;20070;-65
2022/03/16 03:31:03;;;;;;;13.88;9.77;;;7.60;76.00;;;;;;4931483;28;20024;-65
2022/03/16 03:33:30;;;;;;;13.30;9.35;;;7.60;76.00;;;;;;4931812;28;20046;-63
2022/03/16 03:35:55;;;;;;;11.85;9.45;;;7.60;76.00;;;;;;4932830;28;20035;-65
2022/03/16 03:38:21;;;;;;;13.60;9.77;;;7.60;76.20;;;;;;4932310;28;20095;-65
2022/03/16 03:40:47;;;;;;;13.30;10.23;;;7.60;76.40;;;;;;4932602;28;20039;-65
2022/03/16 03:43:12;;;;;;;12.77;9.52;;;7.60;76.80;;;;;;4931258;28;20035;-65
2022/03/16 03:45:38;;;;;;;12.60;9.13;;;7.60;76.90;;;;;;4933620;28;20150;-65
2022/03/16 03:48:04;;;;;;;13.65;9.18;;;7.60;77.10;;;;;;4932077;28;20040;-65
2022/03/16 03:50:30;;;;;;;12.45;8.50;;;7.60;77.00;;;;;;4933969;28;20249;-65
2022/03/16 03:52:55;;;;;;;11.48;8.85;;;7.60;76.90;;;;;;4930772;28;20039;-65
2022/03/16 03:55:22;;;;;;;15.20;8.80;;;7.60;76.80;;;;;;4932427;28;20039;-65
2022/03/16 03:57:48;;;;;;;13.40;8.20;;;7.60;76.90;;;;;;4930392;28;20031;-65
2022/03/16 04:00:14;;;;;;;13.50;8.23;;;7.60;76.90;;;;;;4934015;28;20094;-65
2022/03/16 04:02:50;;;;;;;12.20;8.65;;;7.60;77.00;;;;;;4933206;28;20517;-65
2022/03/16 04:05:17;;;;;;;12.60;9.27;;;7.60;77.20;;;;;;4933329;28;20050;-66
2022/03/16 04:07:43;;;;;;;12.77;8.45;;;7.60;77.00;;;;;;4933893;28;20046;-65
2022/03/16 04:10:09;;;;;;;11.55;8.70;;;7.70;77.10;;;;;;4934729;28;20456;-65
2022/03/16 04:12:35;;;;;;;11.63;8.90;;;7.60;77.00;;;;;;4935972;28;20046;-66
2022/03/16 04:15:00;;;;;;;15.05;9.73;;;7.70;77.20;;;;;;4936823;28;20036;-65
2022/03/16 04:17:26;;;;;;;14.77;9.48;;;7.70;77.30;;;;;;4950461;28;20426;-66
2022/03/16 04:19:52;;;;;;;12.38;9.70;;;7.70;77.50;;;;;;4933812;28;20042;-65
2022/03/16 04:22:17;;;;;;;13.40;10.13;;;7.70;77.70;;;;;;4939572;28;20510;-65
2022/03/16 04:24:43;;;;;;;12.23;9.75;;;7.70;77.90;;;;;;4934500;28;20549;-65
2022/03/16 04:27:08;;;;;;;12.30;9.55;;;7.70;78.00;;;;;;4934653;29;20046;-65
2022/03/16 04:29:34;;;;;;;14.60;11.52;;;7.70;78.20;;;;;;4935521;28;20134;-66
2022/03/16 04:32:00;;;;;;;14.63;9.88;;;7.70;78.20;;;;;;4934469;28;20511;-65
2022/03/16 04:34:25;;;;;;;16.63;10.30;;;7.70;78.40;;;;;;4936522;28;20040;-62
2022/03/16 04:36:51;;;;;;;14.55;10.43;;;7.70;78.30;;;;;;4935802;28;20051;-64
2022/03/16 04:39:16;;;;;;;15.77;10.30;;;7.80;78.30;;;;;;4933747;28;20531;-65
2022/03/16 04:41:43;;;;;;;13.18;9.70;;;7.80;78.30;;;;;;4937211;28;20035;-65
2022/03/16 04:44:09;;;;;;;16.75;10.20;;;7.80;78.20;;;;;;4933680;28;20031;-66
2022/03/16 04:46:34;;;;;;;14.20;10.50;;;7.80;78.20;;;;;;4937012;28;20534;-65
2022/03/16 04:49:00;;;;;;;14.70;11.27;;;7.80;78.20;;;;;;4935087;28;20043;-65
2022/03/16 04:51:26;;;;;;;17.92;13.20;;;7.80;78.20;;;;;;4936564;28;20044;-65
2022/03/16 04:53:51;;;;;;;16.95;12.48;;;7.80;79.30;;;;;;4933245;28;20059;-65
2022/03/16 04:56:17;;;;;;;17.02;12.75;;;7.80;78.50;;;;;;4937339;28;20051;-65
2022/03/16 04:58:43;;;;;;;16.88;11.82;;;7.80;78.60;;;;;;4932307;28;20459;-65
2022/03/16 05:01:09;;;;;;;13.85;11.05;;;7.90;78.70;;;;;;4936401;28;20031;-65
2022/03/16 05:03:34;;;;;;;15.25;10.77;;;7.80;78.60;;;;;;4935830;28;20036;-65
2022/03/16 05:06:00;;;;;;;14.10;10.93;;;7.80;78.50;;;;;;4936274;28;20492;-65
2022/03/16 05:08:25;;;;;;;14.65;10.75;;;7.80;78.40;;;;;;4934572;28;20040;-64
2022/03/16 05:10:51;;;;;;;18.77;12.13;;;7.80;78.40;;;;;;4933919;28;20049;-65
2022/03/16 05:13:17;;;;;;;16.65;11.70;;;7.80;78.40;;;;;;4939148;28;20046;-65
2022/03/16 05:15:42;;;;;;;15.95;11.63;;;7.70;78.40;;;;;;4934559;28;20039;-65
2022/03/16 05:18:08;;;;;;;15.95;9.95;;;7.70;78.50;;;;;;4935063;28;20146;-65
2022/03/16 05:20:34;;;;;;;14.30;10.38;;;7.80;78.50;;;;;;4931500;28;20044;-65
2022/03/16 05:23:00;;;;;;;13.85;10.05;;;7.80;78.40;;;;;;4932941;28;20032;-65
2022/03/16 05:25:27;;;;;;;14.93;9.95;;;7.80;78.40;;;;;;4927423;28;20031;-65
2022/03/16 05:27:54;;;;;;;13.63;9.80;;;7.80;78.40;;;;;;4931599;28;20043;-65
2022/03/16 05:30:22;;;;;;;15.57;10.40;;;7.90;78.40;;;;;;4935597;28;20110;-65
2022/03/16 05:32:50;;;;;;;15.32;10.35;;;7.90;78.40;;;;;;4934161;28;20644;-65
2022/03/16 05:35:16;;;;;;;20.17;10.35;;;7.90;78.50;;;;;;4935893;28;20086;-64
2022/03/16 05:37:42;;;;;;;19.15;11.43;;;7.90;78.30;;;;;;4935014;28;20035;-65
2022/03/16 05:40:08;;;;;;;21.80;14.07;;;7.90;78.40;;;;;;4934602;28;20044;-65
2022/03/16 05:42:34;;;;;;;27.80;15.93;;;8.00;78.70;;;;;;4935258;28;20499;-62
2022/03/16 05:45:01;;;;;;;38.05;16.85;;;8.00;79.10;;;;;;4934268;28;20127;-64
2022/03/16 05:47:27;;;;;;;30.15;16.30;;;8.00;79.40;;;;;;4938608;28;20043;-66
2022/03/16 05:49:54;;;;;;;35.70;16.38;;;8.10;79.70;;;;;;4940028;28;20044;-65
2022/03/16 05:52:21;;;;;;;43.42;17.40;;;8.00;79.80;;;;;;4938613;28;20035;-66
2022/03/16 05:54:52;;;;;;;39.17;17.25;;;8.10;80.00;;;;;;4939279;28;20041;-65
2022/03/16 05:57:18;;;;;;;41.20;17.45;;;8.10;80.10;;;;;;4939260;28;20534;-65
2022/03/16 05:59:44;;;;;;;38.67;17.65;;;8.10;79.90;;;;;;4942168;28;20043;-66
2022/03/16 06:02:11;;;;;;;49.78;17.92;;;8.20;80.00;;;;;;4939552;28;20038;-65
2022/03/16 06:04:38;;;;;;;49.17;18.27;;;8.20;80.10;;;;;;4940140;28;20039;-65
2022/03/16 06:07:04;;;;;;;39.15;17.17;;;8.20;80.10;;;;;;4939223;28;20503;-65
2022/03/16 06:09:31;;;;;;;33.00;16.98;;;8.20;80.30;;;;;;4938623;28;20047;-65
2022/03/16 06:11:58;;;;;;;43.75;17.95;;;8.20;80.30;;;;;;4941333;28;20034;-64
2022/03/16 06:14:24;;;;;;;44.15;17.98;;;8.20;80.40;;;;;;4938684;28;20096;-66
2022/03/16 06:16:50;;;;;;;43.33;17.48;;;8.20;80.60;;;;;;4941296;28;20555;-65
2022/03/16 06:19:16;;;;;;;42.45;17.23;;;8.20;80.60;;;;;;4940156;28;20054;-66
2022/03/16 06:21:41;;;;;;;59.85;20.15;;;8.30;81.70;;;;;;4937498;28;20039;-65
2022/03/16 06:24:07;;;;;;;34.67;18.27;;;8.30;81.00;;;;;;4938320;28;20158;-66
2022/03/16 06:26:33;;;;;;;46.25;18.17;;;8.30;81.00;;;;;;4937289;28;20035;-65
2022/03/16 06:28:59;;;;;;;39.65;18.67;;;8.40;81.10;;;;;;4937959;28;20043;-65
2022/03/16 06:31:24;;;;;;;41.78;20.33;;;8.40;81.20;;;;;;4937989;28;20031;-65
2022/03/16 06:33:50;;;;;;;41.70;19.60;;;8.40;81.30;;;;;;4938042;28;20032;-66
2022/03/16 06:36:15;;;;;;;36.47;19.60;;;8.50;81.40;;;;;;4938995;28;20042;-65
2022/03/16 06:38:41;;;;;;;40.47;21.00;;;8.50;81.50;;;;;;4943839;28;20495;-65
2022/03/16 06:41:07;;;;;;;42.53;20.23;;;8.60;81.50;;;;;;4935777;28;20074;-64
2022/03/16 06:43:32;;;;;;;47.03;20.60;;;8.60;81.60;;;;;;4935518;28;20533;-65
2022/03/16 06:45:58;;;;;;;44.92;20.40;;;8.70;81.70;;;;;;4935094;28;20054;-65
2022/03/16 06:48:24;;;;;;;43.17;19.48;;;8.70;81.70;;;;;;4938424;28;20035;-69
2022/03/16 06:50:50;;;;;;;39.47;19.00;;;8.70;81.70;;;;;;4938253;28;20031;-65
2022/03/16 06:53:16;;;;;;;55.85;19.70;;;8.70;81.60;;;;;;4934363;28;20039;-65
2022/03/16 06:55:42;;;;;;;33.85;17.98;;;8.80;81.70;;;;;;4934690;28;20036;-65
2022/03/16 06:58:07;;;;;;;41.90;19.10;;;8.80;81.70;;;;;;4939647;28;20032;-64
2022/03/16 07:00:33;;;;;;;43.95;18.60;;;8.80;81.70;;;;;;4938531;28;20047;-65
2022/03/16 07:03:01;;;;;;;49.50;18.65;;;8.90;81.70;;;;;;4953899;28;20495;-65
2022/03/16 07:05:32;;;;;;;39.20;19.33;;;8.90;81.70;;;;;;4939694;28;20527;-65
2022/03/16 07:08:18;;;;;;;35.90;18.75;;;8.90;82.00;;;;;;4938061;28;20426;-64
2022/03/16 07:10:44;;;;;;;39.42;18.65;;;8.90;81.90;;;;;;4938679;28;20043;-65
2022/03/16 07:13:11;;;;;;;36.78;18.85;;;8.90;81.90;;;;;;4940690;28;20838;-65
2022/03/16 07:15:41;;;;;;;34.50;18.45;;;9.00;82.00;;;;;;4937761;28;20136;-65
2022/03/16 07:18:07;;;;;;;35.63;19.00;;;9.00;82.00;;;;;;4938484;28;20042;-65
2022/03/16 07:20:33;;;;;;;36.22;20.17;;;9.10;82.10;;;;;;4938405;28;20047;-65
2022/03/16 07:23:11;;;;;;;37.55;19.77;;;9.10;82.20;;;;;;4936620;28;20054;-65
2022/03/16 07:25:39;;;;;;;32.15;18.90;;;9.10;82.60;;;;;;4939963;28;20215;-65
2022/03/16 07:28:05;;;;;;;34.10;19.38;;;9.10;82.10;;;;;;4937944;28;20561;-65
2022/03/16 07:30:32;;;;;;;34.60;20.20;;;9.20;82.20;;;;;;4936752;28;20051;-65
2022/03/16 07:32:58;;;;;;;34.95;19.15;;;9.20;82.20;;;;;;4938164;28;20459;-65
2022/03/16 07:35:26;;;;;;;37.17;19.95;;;9.30;82.20;;;;;;4937549;28;20071;-65
2022/03/16 07:37:53;;;;;;;42.03;20.98;;;9.30;82.20;;;;;;4934798;28;20035;-65
2022/03/16 07:40:19;;;;;;;38.00;19.38;;;9.40;82.20;;;;;;4939266;28;20044;-65
2022/03/16 07:42:46;;;;;;;34.00;20.23;;;9.40;82.20;;;;;;4939771;28;20066;-64
2022/03/16 07:45:14;;;;;;;38.17;20.63;;;9.40;82.20;;;;;;4940789;28;20499;-65
2022/03/16 07:47:40;;;;;;;32.55;19.33;;;9.40;82.10;;;;;;4940443;28;20518;-65
2022/03/16 07:50:07;;;;;;;38.30;19.98;;;9.50;82.10;;;;;;4944826;28;20047;-65
2022/03/16 07:52:33;;;;;;;62.55;21.40;;;9.50;82.10;;;;;;4940726;28;20079;-65
2022/03/16 07:54:59;;;;;;;48.30;21.77;;;9.60;82.10;;;;;;4938510;28;20031;-64
2022/03/16 07:57:25;;;;;;;67.38;22.98;;;9.60;82.00;;;;;;4941687;28;20055;-65
2022/03/16 07:59:51;;;;;;;41.72;20.92;;;9.60;82.00;;;;;;4941266;28;20126;-65
2022/03/16 08:02:17;;;;;;;47.20;21.33;;;9.60;82.00;;;;;;4939485;28;20077;-63
2022/03/16 08:04:42;;;;;;;77.82;22.67;;;9.60;82.00;;;;;;4939370;28;20118;-65
2022/03/16 08:07:09;;;;;;;50.78;22.45;;;9.60;82.00;;;;;;4938994;28;20028;-66
2022/03/16 08:09:35;;;;;;;48.13;23.65;;;9.60;81.90;;;;;;4941750;28;20122;-64
2022/03/16 08:12:02;;;;;;;49.30;24.75;;;9.60;82.00;;;;;;4941248;28;20043;-66
2022/03/16 08:14:28;;;;;;;46.35;26.13;;;9.60;81.90;;;;;;4936310;28;20035;-66
2022/03/16 08:16:53;;;;;;;61.25;26.83;;;9.50;81.90;;;;;;4940364;28;20518;-65
2022/03/16 08:19:21;;;;;;;51.60;26.80;;;9.50;82.00;;;;;;4941044;28;20047;-65
2022/03/16 08:21:49;;;;;;;56.63;27.40;;;9.50;81.80;;;;;;4943058;28;20059;-65
2022/03/16 08:24:16;;;;;;;55.55;27.02;;;9.40;81.70;;;;;;4939104;28;20111;-65
2022/03/16 08:26:42;;;;;;;47.83;26.10;;;9.40;81.70;;;;;;4941303;28;20062;-66
2022/03/16 08:29:07;;;;;;;52.60;26.70;;;9.40;81.70;;;;;;4937821;28;21374;-65
2022/03/16 08:31:34;;;;;;;51.75;28.85;;;9.40;81.90;;;;;;4939680;28;20040;-65
2022/03/16 08:34:02;;;;;;;51.10;27.92;;;9.40;81.80;;;;;;4939279;28;20123;-66
2022/03/16 08:36:28;;;;;;;57.22;29.00;;;9.40;81.70;;;;;;4941675;28;20035;-65
2022/03/16 08:38:54;;;;;;;55.53;28.80;;;9.30;81.90;;;;;;4937369;28;20043;-65
2022/03/16 08:41:20;;;;;;;53.17;27.45;;;9.30;81.80;;;;;;4939913;28;20042;-65
2022/03/16 08:43:45;;;;;;;53.22;27.85;;;9.30;81.90;;;;;;4940388;28;20027;-64
2022/03/16 08:46:11;;;;;;;51.30;26.80;;;9.30;82.00;;;;;;4940114;28;20062;-65
2022/03/16 08:48:37;;;;;;;55.10;29.95;;;9.30;82.00;;;;;;4941283;28;20496;-65
2022/03/16 08:51:03;;;;;;;50.05;28.75;;;9.30;82.40;;;;;;4940344;28;20039;-65
2022/03/16 08:53:29;;;;;;;56.60;28.30;;;9.30;82.40;;;;;;4941601;28;20114;-66
2022/03/16 08:55:55;;;;;;;52.83;27.75;;;9.20;82.20;;;;;;4941744;28;20062;-66
2022/03/16 08:58:21;;;;;;;65.10;30.20;;;9.20;82.20;;;;;;4940480;28;20039;-66
2022/03/16 09:00:47;;;;;;;51.17;28.80;;;9.20;82.20;;;;;;4942654;28;20050;-65
2022/03/16 09:03:12;;;;;;;53.30;27.77;;;9.20;82.40;;;;;;4937790;28;20504;-65
2022/03/16 09:05:38;;;;;;;49.65;27.40;;;9.10;82.10;;;;;;4942315;28;20528;-65
2022/03/16 09:08:04;;;;;;;49.47;27.50;;;9.10;82.20;;;;;;4940893;28;20034;-65
2022/03/16 09:10:30;;;;;;;53.67;27.80;;;9.10;82.10;;;;;;4944739;28;20589;-66
2022/03/16 09:12:56;;;;;;;50.55;28.02;;;9.10;82.30;;;;;;4944616;28;20110;-66
2022/03/16 09:15:21;;;;;;;48.28;27.50;;;9.10;82.40;;;;;;4942955;28;20047;-66
2022/03/16 09:17:47;;;;;;;52.25;27.75;;;9.00;83.20;;;;;;4941738;28;20221;-65
2022/03/16 09:20:12;;;;;;;45.88;26.08;;;9.00;82.50;;;;;;4940673;28;20039;-66
2022/03/16 09:22:38;;;;;;;53.90;27.95;;;9.00;82.40;;;;;;4942528;28;20039;-66
2022/03/16 09:25:06;;;;;;;48.97;26.33;;;9.10;82.60;;;;;;4940755;28;20037;-66
2022/03/16 09:27:33;;;;;;;47.55;26.08;;;9.10;82.60;;;;;;4941261;28;20175;-66
2022/03/16 09:30:00;;;;;;;48.72;26.15;;;9.10;82.60;;;;;;4938261;28;20035;-65
2022/03/16 09:32:26;;;;;;;46.38;26.13;;;9.10;82.70;;;;;;4941931;28;20495;-66
2022/03/16 09:34:51;;;;;;;50.90;26.52;;;9.10;82.70;;;;;;4944077;28;20125;-64
2022/03/16 09:37:17;;;;;;;48.38;25.67;;;9.10;82.80;;;;;;4935902;28;20093;-64
2022/03/16 09:39:44;;;;;;;45.72;25.58;;;9.10;82.70;;;;;;4939166;28;20462;-66
2022/03/16 09:42:10;;;;;;;50.92;26.50;;;9.20;82.90;;;;;;4954065;28;20137;-65
2022/03/16 09:44:36;;;;;;;52.85;27.75;;;9.20;82.90;;;;;;4938336;28;20118;-66
2022/03/16 09:47:04;;;;;;;51.40;26.13;;;9.20;82.80;;;;;;4938804;28;20028;-65
2022/03/16 09:49:30;;;;;;;54.50;28.15;;;9.20;82.80;;;;;;4941756;28;20070;-65
2022/03/16 09:51:57;;;;;;;54.10;27.52;;;9.30;82.90;;;;;;4938960;28;20031;-65
2022/03/16 09:54:23;;;;;;;48.85;27.10;;;9.30;82.80;;;;;;4943573;28;20384;-65
2022/03/16 09:56:49;;;;;;;49.55;27.73;;;9.30;82.70;;;;;;4940951;28;20031;-66
2022/03/16 09:59:15;;;;;;;48.47;25.83;;;9.30;82.60;;;;;;4939728;28;20526;-66
2022/03/16 10:01:44;;;;;;;49.05;27.17;;;9.30;82.40;;;;;;4939945;28;20035;-65
2022/03/16 10:04:10;;;;;;;44.97;25.55;;;9.30;82.60;;;;;;4941438;28;20037;-66
2022/03/16 10:06:37;;;;;;;45.10;24.85;;;9.30;82.40;;;;;;4941683;28;20035;-64
2022/03/16 10:15:10;;;;;;;43.78;25.50;;;9.40;82.20;;;;;;4938570;28;20046;-64
2022/03/16 10:17:45;;;;;;;45.08;25.38;;;9.50;82.50;;;;;;4940506;28;20511;-64
2022/03/16 10:20:29;;;;;;;47.20;26.23;;;9.50;81.90;;;;;;4943339;28;20046;-66
2022/03/16 10:23:05;;;;;;;46.03;25.52;;;9.60;82.30;;;;;;4944073;28;20023;-66
2022/03/16 10:25:53;;;;;;;46.30;25.38;;;9.60;81.80;;;;;;4944789;28;20459;-64
2022/03/16 10:28:24;;;;;;;48.00;25.25;;;9.60;81.70;;;;;;4938665;28;20035;-64
2022/03/16 10:30:55;;;;;;;47.50;25.45;;;9.60;81.70;;;;;;4937601;28;20046;-66
2022/03/16 10:33:23;;;;;;;45.03;23.83;;;9.60;81.60;;;;;;4938860;28;20041;-62
2022/03/16 10:36:05;;;;;;;45.33;25.33;;;9.70;81.50;;;;;;4940716;28;20035;-66
2022/03/16 10:38:45;;;;;;;44.63;25.08;;;9.70;82.00;;;;;;4937781;28;20047;-66
2022/03/16 10:41:11;;;;;;;46.55;25.85;;;9.70;81.40;;;;;;4936942;28;20035;-65
2022/03/16 10:46:34;;;;;;;46.25;24.45;;;9.70;81.20;;;;;;4940055;28;20519;-65
2022/03/16 10:49:04;;;;;;;44.45;25.25;;;9.80;81.30;;;;;;4943391;28;20110;-65
2022/03/16 10:51:31;;;;;;;39.58;23.42;;;9.80;81.40;;;;;;4940955;28;20055;-65
2022/03/16 10:53:59;;;;;;;40.95;23.80;;;9.80;81.20;;;;;;4941462;28;20043;-66
2022/03/16 10:56:27;;;;;;;44.60;24.27;;;9.90;81.30;;;;;;4940364;28;20613;-67
2022/03/16 10:58:54;;;;;;;39.80;23.23;;;9.90;81.30;;;;;;4938294;28;20452;-65
2022/03/16 11:01:22;;;;;;;41.53;23.52;;;9.90;81.30;;;;;;4940141;28;20090;-65
2022/03/16 11:03:49;;;;;;;41.47;23.38;;;9.90;81.20;;;;;;4937254;28;20063;-65
2022/03/16 11:06:20;;;;;;;39.03;22.70;;;10.00;81.10;;;;;;4937639;28;20054;-66
2022/03/16 11:08:47;;;;;;;34.60;21.55;;;10.00;81.00;;;;;;4935798;28;20043;-66
2022/03/16 11:13:58;;;;;;;38.60;22.77;;;10.10;80.80;;;;;;4938449;28;20072;-66
2022/03/16 11:16:24;;;;;;;32.90;20.02;;;10.20;80.80;;;;;;4937859;28;20035;-66
2022/03/16 11:18:51;;;;;;;35.60;21.05;;;10.20;80.80;;;;;;4939971;28;20032;-65
2022/03/16 11:21:29;;;;;;;33.78;20.50;;;10.30;80.80;;;;;;4942799;28;20027;-66
2022/03/16 11:24:16;;;;;;;33.28;20.25;;;10.30;80.70;;;;;;4941728;28;20045;-66
2022/03/16 11:26:56;;;;;;;37.00;20.27;;;10.40;80.50;;;;;;4942744;28;20036;-65
2022/03/16 11:29:25;;;;;;;37.00;20.98;;;10.40;80.20;;;;;;4941356;28;20434;-66
2022/03/16 11:31:50;;;;;;;36.22;21.33;;;10.50;80.00;;;;;;4948417;28;20532;-66
2022/03/16 11:34:23;;;;;;;35.63;20.20;;;10.50;80.00;;;;;;4942628;28;20032;-65
2022/03/16 11:37:01;;;;;;;35.35;22.00;;;10.60;79.90;;;;;;4942782;28;20066;-65
2022/03/16 11:39:37;;;;;;;32.00;19.88;;;10.60;79.70;;;;;;4940712;28;20040;-65
2022/03/16 11:42:06;;;;;;;32.75;19.73;;;10.60;79.50;;;;;;4942350;28;20023;-66
2022/03/16 11:44:33;;;;;;;33.00;20.33;;;10.60;79.40;;;;;;4942169;28;20028;-66
2022/03/16 11:47:11;;;;;;;35.13;21.33;;;10.70;79.30;;;;;;4944529;28;20038;-65
2022/03/16 11:49:41;;;;;;;32.50;20.25;;;10.70;79.10;;;;;;4938523;28;20036;-65
2022/03/16 11:52:09;;;;;;;34.47;20.85;;;10.70;79.10;;;;;;4941502;28;20031;-65
2022/03/16 11:54:46;;;;;;;33.63;20.80;;;10.80;79.20;;;;;;4939949;28;20061;-65
2022/03/16 11:57:13;;;;;;;30.88;19.58;;;10.80;79.20;;;;;;4937778;28;20078;-66
2022/03/16 11:59:45;;;;;;;32.25;20.67;;;10.90;79.20;;;;;;4938667;28;20446;-66
2022/03/16 12:02:27;;;;;;;31.92;19.10;;;10.90;79.10;;;;;;4941469;28;20118;-64
2022/03/16 12:05:01;;;;;;;31.00;19.70;;;10.90;78.80;;;;;;4943108;28;20394;-66
2022/03/16 12:07:30;;;;;;;32.72;19.80;;;11.00;78.70;;;;;;4941726;28;20035;-65
2022/03/16 12:09:59;;;;;;;30.13;19.77;;;11.00;78.60;;;;;;4941277;28;20553;-66
2022/03/16 12:13:00;;;;;;;33.65;19.80;;;11.00;78.40;;;;;;4939879;28;20044;-64
2022/03/16 12:15:39;;;;;;;31.52;19.15;;;11.00;78.20;;;;;;4934494;28;20487;-66
2022/03/16 12:18:07;;;;;;;30.25;18.80;;;11.10;78.20;;;;;;4944898;28;20150;-66
2022/03/16 12:20:38;;;;;;;30.75;19.20;;;11.10;78.10;;;;;;4941983;28;20038;-66
2022/03/16 12:23:25;;;;;;;29.63;19.17;;;11.10;78.00;;;;;;4941008;28;20518;-65
2022/03/16 12:25:51;;;;;;;28.20;18.55;;;11.20;78.10;;;;;;4938369;28;20031;-66
2022/03/16 12:31:12;;;;;;;29.70;18.50;;;11.20;77.90;;;;;;4937582;28;20117;-66
2022/03/16 12:33:39;;;;;;;28.55;18.52;;;11.30;78.00;;;;;;4938583;28;20074;-66
2022/03/16 12:36:04;;;;;;;27.10;17.55;;;11.30;77.90;;;;;;4938656;28;20037;-64
2022/03/16 12:38:32;;;;;;;28.05;18.58;;;11.40;77.90;;;;;;4942473;28;20031;-64
2022/03/16 12:43:45;;;;;;;26.67;17.30;;;11.40;77.70;;;;;;4939653;28;20586;-65
2022/03/16 12:46:32;;;;;;;29.33;17.83;;;11.50;77.70;;;;;;4937164;28;20522;-65
2022/03/16 12:49:01;;;;;;;26.58;17.80;;;11.50;77.30;;;;;;4939076;28;20356;-65
2022/03/16 12:51:33;;;;;;;26.23;17.77;;;11.60;77.40;;;;;;4939460;28;20115;-65
2022/03/16 12:53:59;;;;;;;24.50;17.20;;;11.60;77.40;;;;;;4938519;28;20035;-65
2022/03/16 12:56:24;;;;;;;26.17;17.75;;;11.70;77.30;;;;;;4942875;28;20415;-66